BTEX

Black Thunder Express - T

Station: 60 Miles - T Race

Distance: 60 Miles

Release: 31-Jul-2020 06:30

Weather Release:    Arrival: SUNNY

Wind at Release: calm     Wind at Arrival: calm

Temp at Release: 60°    Temp at Arrival: 63°

Lofts: 13

Birds: 20

Clocked: 20

Good Luck to Everyone!
Drops Pos Breeder Pigeon Name Color Sex Ent Arrival Speed To Win Elg Pd
1 Rueter Family Loft - OR 4600-AU20-CORP BB H 1 08:04:39.42 1115.607 00:00:00 Yes
2 Juniper Hill Loft - OR 4387-AU20-CORP Little Girl BB H 1 08:04:39.53 1115.583 00:00:00 Yes
3 Rueter Family Loft - OR 4501-AU20-CORP BB H 2 08:04:39.93 1115.505 00:00:01 Yes
4 Lazio - CA 4311-AU20-SRP BC H 1 08:04:40.30 1115.432 00:00:01 Yes
5 Roger Teeters - WA 5512-AU20-LKC BC H 1 08:04:40.70 1115.356 00:00:01 Yes
6 Life Loft - WA 1914-AU20-CBS Chicken Dinner BBPD H 1 08:04:40.84 1115.328 00:00:01 Yes
7 Lazio - CA 4301-AU20-SRP BB H 2 08:04:40.97 1115.302 00:00:02 Yes
8 Bch Loft - UT 0138-AU20-BCH Double Dijkstra BC H 1 08:04:41.62 1115.175 00:00:02 Yes
9 Flying Glory Loft - WA 28122-AU20-ARPU BB C 1 08:04:42.60 1114.983 00:00:03 Yes
10 Paul Meyer - WA 0814-AU20-TCW BC H 1 08:04:43.00 1114.904 00:00:04 Yes
11 Lazio - CA 4315-AU20-SRP BB H 3 08:04:43.57 1114.792 00:00:04 Yes
12 Paul Meyer - WA 0810-AU20-TCW BC H 2 08:04:43.98 1114.710 00:00:05 Yes
13 Dream Team - MI 0197-AU20-AU BB H 1 08:04:44.36 1114.635 00:00:05 Yes
14 Tom Arveson - WA 5335-AU20-LKC BB H 1 08:04:45.40 1114.433 00:00:06 Yes
15 Flying Glory Loft - WA 28125-AU20-ARPU BB H 2 08:04:47.11 1114.098 00:00:08 Yes
16 Bch Loft - UT 0139-AU20-BCH Bonita Cash BC H 2 08:04:48.19 1113.887 00:00:09 Yes
17 Lazio - CA 4310-AU20-SRP BC H 4 08:04:49.91 1113.548 00:00:11 Yes
18 Roger Teeters - WA 5504-AU20-LKC BB H 2 08:21:44.12 945.090 00:17:05 Yes
19 Lamonta - OR 0608-AU20-FHI BC H 1 09:21:56.42 614.167 01:17:17 Yes
20 Rueter Family Loft - OR 4513-AU20-CORP BC H 3 09:34:45.98 571.532 01:30:07 Yes

There are 32 bird records

Note: These Race Results are unofficial and subject to change until verified by the Race Committee and declared final.